sensor_id;sensor_type;location;lat;lon;timestamp;temperature;humidity
2621;DHT22;1320;48.128;11.592;2023-04-01T00:01:10;9.40;99.90
2621;DHT22;1320;48.128;11.592;2023-04-01T00:03:37;9.40;99.90
2621;DHT22;1320;48.128;11.592;2023-04-01T00:06:03;9.40;99.90
2621;DHT22;1320;48.128;11.592;2023-04-01T00:08:29;9.40;99.90
2621;DHT22;1320;48.128;11.592;2023-04-01T00:10:56;9.30;99.90
2621;DHT22;1320;48.128;11.592;2023-04-01T00:13:23;9.30;99.90
2621;DHT22;1320;48.128;11.592;2023-04-01T00:15:50;9.30;99.90
2621;DHT22;1320;48.128;11.592;2023-04-01T00:18:16;9.30;99.90
2621;DHT22;1320;48.128;11.592;2023-04-01T00:20:46;9.30;99.90
2621;DHT22;1320;48.128;11.592;2023-04-01T00:23:12;9.30;99.90
2621;DHT22;1320;48.128;11.592;2023-04-01T00:25:38;9.30;99.90
2621;DHT22;1320;48.128;11.592;2023-04-01T00:28:04;9.30;99.90
2621;DHT22;1320;48.128;11.592;2023-04-01T00:30:29;9.20;99.90
2621;DHT22;1320;48.128;11.592;2023-04-01T00:32:55;9.20;99.90
2621;DHT22;1320;48.128;11.592;2023-04-01T00:35:21;9.20;99.90
2621;DHT22;1320;48.128;11.592;2023-04-01T00:37:47;9.20;99.90
2621;DHT22;1320;48.128;11.592;2023-04-01T00:42:56;9.20;99.90
2621;DHT22;1320;48.128;11.592;2023-04-01T00:45:34;9.20;99.90
2621;DHT22;1320;48.128;11.592;2023-04-01T00:48:05;9.20;99.90
2621;DHT22;1320;48.128;11.592;2023-04-01T00:50:33;9.20;99.90
2621;DHT22;1320;48.128;11.592;2023-04-01T00:53:00;9.20;99.90
2621;DHT22;1320;48.128;11.592;2023-04-01T00:55:29;9.30;99.90
2621;DHT22;1320;48.128;11.592;2023-04-01T00:57:57;9.20;99.90
2621;DHT22;1320;48.128;11.592;2023-04-01T01:00:24;9.20;99.90
2621;DHT22;1320;48.128;11.592;2023-04-01T01:02:52;9.30;99.90
2621;DHT22;1320;48.128;11.592;2023-04-01T01:05:23;9.30;99.90
2621;DHT22;1320;48.128;11.592;2023-04-01T01:10:24;9.30;99.90
2621;DHT22;1320;48.128;11.592;2023-04-01T01:12:55;9.30;99.90
2621;DHT22;1320;48.128;11.592;2023-04-01T01:18:14;9.30;99.90
2621;DHT22;1320;48.128;11.592;2023-04-01T01:23:53;9.40;99.90
2621;DHT22;1320;48.128;11.592;2023-04-01T01:32:30;9.40;99.90
2621;DHT22;1320;48.128;11.592;2023-04-01T01:35:22;9.50;99.90
2621;DHT22;1320;48.128;11.592;2023-04-01T01:40:49;9.60;99.90
2621;DHT22;1320;48.128;11.592;2023-04-01T01:43:25;9.60;99.90
2621;DHT22;1320;48.128;11.592;2023-04-01T01:45:54;9.70;99.90
2621;DHT22;1320;48.128;11.592;2023-04-01T01:48:22;9.60;99.90
2621;DHT22;1320;48.128;11.592;2023-04-01T01:50:49;9.60;99.90
2621;DHT22;1320;48.128;11.592;2023-04-01T01:53:16;9.50;99.90
2621;DHT22;1320;48.128;11.592;2023-04-01T01:55:44;9.50;99.90
2621;DHT22;1320;48.128;11.592;2023-04-01T01:58:16;9.50;99.90
2621;DHT22;1320;48.128;11.592;2023-04-01T02:00:46;9.40;99.90
2621;DHT22;1320;48.128;11.592;2023-04-01T02:03:14;9.50;99.90
2621;DHT22;1320;48.128;11.592;2023-04-01T02:05:41;9.40;99.90
2621;DHT22;1320;48.128;11.592;2023-04-01T02:08:08;9.40;99.90
2621;DHT22;1320;48.128;11.592;2023-04-01T02:10:39;9.40;99.90
2621;DHT22;1320;48.128;11.592;2023-04-01T02:13:13;9.40;99.90
2621;DHT22;1320;48.128;11.592;2023-04-01T02:15:45;9.40;99.90
2621;DHT22;1320;48.128;11.592;2023-04-01T02:18:13;9.50;99.90
2621;DHT22;1320;48.128;11.592;2023-04-01T02:20:40;9.40;99.90
2621;DHT22;1320;48.128;11.592;2023-04-01T02:23:07;9.40;99.90
2621;DHT22;1320;48.128;11.592;2023-04-01T02:25:36;9.40;99.90
2621;DHT22;1320;48.128;11.592;2023-04-01T02:28:05;9.40;99.90
2621;DHT22;1320;48.128;11.592;2023-04-01T02:30:34;9.40;99.90
2621;DHT22;1320;48.128;11.592;2023-04-01T02:33:01;9.40;99.90
2621;DHT22;1320;48.128;11.592;2023-04-01T02:35:28;9.40;99.90
2621;DHT22;1320;48.128;11.592;2023-04-01T02:37:54;9.40;99.90
2621;DHT22;1320;48.128;11.592;2023-04-01T02:40:21;9.40;99.90
2621;DHT22;1320;48.128;11.592;2023-04-01T02:42:47;9.40;99.90
2621;DHT22;1320;48.128;11.592;2023-04-01T02:45:13;9.40;99.90
2621;DHT22;1320;48.128;11.592;2023-04-01T02:47:39;9.40;99.90
2621;DHT22;1320;48.128;11.592;2023-04-01T02:50:06;9.40;99.90
2621;DHT22;1320;48.128;11.592;2023-04-01T02:52:31;9.40;99.90
2621;DHT22;1320;48.128;11.592;2023-04-01T02:54:57;9.40;99.90
2621;DHT22;1320;48.128;11.592;2023-04-01T02:57:23;9.40;99.90
2621;DHT22;1320;48.128;11.592;2023-04-01T02:59:49;9.40;99.90
2621;DHT22;1320;48.128;11.592;2023-04-01T03:02:15;9.40;99.90
2621;DHT22;1320;48.128;11.592;2023-04-01T03:04:41;9.40;99.90
2621;DHT22;1320;48.128;11.592;2023-04-01T03:07:07;9.40;99.90
2621;DHT22;1320;48.128;11.592;2023-04-01T03:09:35;9.30;99.90
2621;DHT22;1320;48.128;11.592;2023-04-01T03:12:01;9.30;99.90
2621;DHT22;1320;48.128;11.592;2023-04-01T03:14:27;9.30;99.90
2621;DHT22;1320;48.128;11.592;2023-04-01T03:16:52;9.30;99.90
2621;DHT22;1320;48.128;11.592;2023-04-01T03:19:18;9.30;99.90
2621;DHT22;1320;48.128;11.592;2023-04-01T03:21:44;9.30;99.90
2621;DHT22;1320;48.128;11.592;2023-04-01T03:24:10;9.20;99.90
2621;DHT22;1320;48.128;11.592;2023-04-01T03:26:35;9.20;99.90
2621;DHT22;1320;48.128;11.592;2023-04-01T03:29:01;9.20;99.90
2621;DHT22;1320;48.128;11.592;2023-04-01T03:31:27;9.30;99.90
2621;DHT22;1320;48.128;11.592;2023-04-01T03:33:52;9.30;99.90
2621;DHT22;1320;48.128;11.592;2023-04-01T03:36:18;9.30;99.90
2621;DHT22;1320;48.128;11.592;2023-04-01T03:38:44;9.30;99.90
2621;DHT22;1320;48.128;11.592;2023-04-01T03:41:17;9.20;99.90
2621;DHT22;1320;48.128;11.592;2023-04-01T03:43:43;9.20;99.90
2621;DHT22;1320;48.128;11.592;2023-04-01T03:46:09;9.20;99.90
2621;DHT22;1320;48.128;11.592;2023-04-01T03:48:35;9.10;99.90
2621;DHT22;1320;48.128;11.592;2023-04-01T03:51:01;9.10;99.90
2621;DHT22;1320;48.128;11.592;2023-04-01T03:53:26;9.10;99.90
2621;DHT22;1320;48.128;11.592;2023-04-01T03:55:53;9.10;99.90
2621;DHT22;1320;48.128;11.592;2023-04-01T03:58:18;9.10;99.90
2621;DHT22;1320;48.128;11.592;2023-04-01T04:00:45;9.10;99.90
2621;DHT22;1320;48.128;11.592;2023-04-01T04:03:10;9.00;99.90
2621;DHT22;1320;48.128;11.592;2023-04-01T04:05:36;9.00;99.90
2621;DHT22;1320;48.128;11.592;2023-04-01T04:08:02;9.00;99.90
2621;DHT22;1320;48.128;11.592;2023-04-01T04:10:27;9.00;99.90
2621;DHT22;1320;48.128;11.592;2023-04-01T04:12:55;9.00;99.90
2621;DHT22;1320;48.128;11.592;2023-04-01T04:15:21;9.00;99.90
2621;DHT22;1320;48.128;11.592;2023-04-01T04:17:47;9.00;99.90
2621;DHT22;1320;48.128;11.592;2023-04-01T04:20:13;9.00;99.90
2621;DHT22;1320;48.128;11.592;2023-04-01T04:22:39;8.90;99.90
2621;DHT22;1320;48.128;11.592;2023-04-01T04:25:06;8.90;99.90
2621;DHT22;1320;48.128;11.592;2023-04-01T04:27:32;8.90;99.90
2621;DHT22;1320;48.128;11.592;2023-04-01T04:29:58;8.90;99.90
2621;DHT22;1320;48.128;11.592;2023-04-01T04:32:23;9.00;99.90
2621;DHT22;1320;48.128;11.592;2023-04-01T04:34:49;9.00;99.90
2621;DHT22;1320;48.128;11.592;2023-04-01T04:37:15;9.00;99.90
2621;DHT22;1320;48.128;11.592;2023-04-01T04:39:40;9.00;99.90
2621;DHT22;1320;48.128;11.592;2023-04-01T04:42:06;9.00;99.90
2621;DHT22;1320;48.128;11.592;2023-04-01T04:44:32;9.10;99.90
2621;DHT22;1320;48.128;11.592;2023-04-01T04:46:57;9.10;99.90
2621;DHT22;1320;48.128;11.592;2023-04-01T04:49:23;9.20;99.90
2621;DHT22;1320;48.128;11.592;2023-04-01T04:51:49;9.20;99.90
2621;DHT22;1320;48.128;11.592;2023-04-01T04:54:15;9.20;99.90
2621;DHT22;1320;48.128;11.592;2023-04-01T04:56:40;9.20;99.90
2621;DHT22;1320;48.128;11.592;2023-04-01T04:59:06;9.20;99.90
2621;DHT22;1320;48.128;11.592;2023-04-01T05:01:32;9.20;99.90
2621;DHT22;1320;48.128;11.592;2023-04-01T05:03:59;9.20;99.90
2621;DHT22;1320;48.128;11.592;2023-04-01T05:06:25;9.20;99.90
2621;DHT22;1320;48.128;11.592;2023-04-01T05:08:51;9.20;99.90
2621;DHT22;1320;48.128;11.592;2023-04-01T05:11:18;9.20;99.90
2621;DHT22;1320;48.128;11.592;2023-04-01T05:13:45;9.20;99.90
2621;DHT22;1320;48.128;11.592;2023-04-01T05:16:13;9.30;99.90
2621;DHT22;1320;48.128;11.592;2023-04-01T05:18:39;9.30;99.90
2621;DHT22;1320;48.128;11.592;2023-04-01T05:21:07;9.30;99.90
2621;DHT22;1320;48.128;11.592;2023-04-01T05:23:33;9.30;99.90
2621;DHT22;1320;48.128;11.592;2023-04-01T05:26:02;9.30;99.90
2621;DHT22;1320;48.128;11.592;2023-04-01T05:28:28;9.30;99.90
2621;DHT22;1320;48.128;11.592;2023-04-01T05:30:54;9.30;99.90
2621;DHT22;1320;48.128;11.592;2023-04-01T05:33:20;9.30;99.90
2621;DHT22;1320;48.128;11.592;2023-04-01T05:35:45;9.30;99.90
2621;DHT22;1320;48.128;11.592;2023-04-01T05:38:11;9.30;99.90
2621;DHT22;1320;48.128;11.592;2023-04-01T05:40:36;9.40;99.90
2621;DHT22;1320;48.128;11.592;2023-04-01T05:43:02;9.40;99.90
2621;DHT22;1320;48.128;11.592;2023-04-01T05:45:28;9.40;99.90
2621;DHT22;1320;48.128;11.592;2023-04-01T05:47:53;9.40;99.90
2621;DHT22;1320;48.128;11.592;2023-04-01T05:50:19;9.50;99.90
2621;DHT22;1320;48.128;11.592;2023-04-01T05:52:45;9.50;99.90
2621;DHT22;1320;48.128;11.592;2023-04-01T05:55:11;9.50;99.90
2621;DHT22;1320;48.128;11.592;2023-04-01T05:57:37;9.50;99.90
2621;DHT22;1320;48.128;11.592;2023-04-01T06:00:03;9.60;99.90
2621;DHT22;1320;48.128;11.592;2023-04-01T06:02:29;9.60;99.90
2621;DHT22;1320;48.128;11.592;2023-04-01T06:05:22;9.60;99.90
2621;DHT22;1320;48.128;11.592;2023-04-01T06:07:52;9.60;99.90
2621;DHT22;1320;48.128;11.592;2023-04-01T06:10:22;9.70;99.90
2621;DHT22;1320;48.128;11.592;2023-04-01T06:13:05;9.70;99.90
2621;DHT22;1320;48.128;11.592;2023-04-01T06:15:40;9.80;99.90
2621;DHT22;1320;48.128;11.592;2023-04-01T06:21:37;9.80;99.90
2621;DHT22;1320;48.128;11.592;2023-04-01T06:52:01;10.10;99.90
2621;DHT22;1320;48.128;11.592;2023-04-01T06:54:44;10.10;99.90
2621;DHT22;1320;48.128;11.592;2023-04-01T06:57:35;10.00;99.90
2621;DHT22;1320;48.128;11.592;2023-04-01T07:00:11;10.00;99.90
2621;DHT22;1320;48.128;11.592;2023-04-01T07:02:53;10.00;99.90
2621;DHT22;1320;48.128;11.592;2023-04-01T07:05:21;10.10;99.90
2621;DHT22;1320;48.128;11.592;2023-04-01T07:07:51;10.20;99.90
2621;DHT22;1320;48.128;11.592;2023-04-01T07:18:46;10.50;99.90
2621;DHT22;1320;48.128;11.592;2023-04-01T07:21:33;10.50;99.90
2621;DHT22;1320;48.128;11.592;2023-04-01T07:24:29;10.60;99.90
2621;DHT22;1320;48.128;11.592;2023-04-01T07:26:57;10.60;99.90
2621;DHT22;1320;48.128;11.592;2023-04-01T07:29:23;10.50;99.90
2621;DHT22;1320;48.128;11.592;2023-04-01T07:34:26;10.50;99.90
2621;DHT22;1320;48.128;11.592;2023-04-01T07:59:11;11.40;99.90
2621;DHT22;1320;48.128;11.592;2023-04-01T08:02:02;11.70;99.90
2621;DHT22;1320;48.128;11.592;2023-04-01T08:07:35;12.00;98.80
2621;DHT22;1320;48.128;11.592;2023-04-01T08:10:19;11.90;98.90
2621;DHT22;1320;48.128;11.592;2023-04-01T08:21:24;11.70;98.80
2621;DHT22;1320;48.128;11.592;2023-04-01T08:23:56;11.80;98.80
2621;DHT22;1320;48.128;11.592;2023-04-01T08:26:30;11.80;98.50
2621;DHT22;1320;48.128;11.592;2023-04-01T08:34:18;11.90;98.30
2621;DHT22;1320;48.128;11.592;2023-04-01T08:37:04;11.90;98.50
2621;DHT22;1320;48.128;11.592;2023-04-01T08:42:25;12.40;97.50
2621;DHT22;1320;48.128;11.592;2023-04-01T09:24:22;12.90;96.70
2621;DHT22;1320;48.128;11.592;2023-04-01T09:30:17;13.30;95.80
2621;DHT22;1320;48.128;11.592;2023-04-01T09:35:50;13.00;96.20
2621;DHT22;1320;48.128;11.592;2023-04-01T09:38:46;12.90;96.40
2621;DHT22;1320;48.128;11.592;2023-04-01T09:41:31;12.90;96.70
2621;DHT22;1320;48.128;11.592;2023-04-01T10:01:08;13.90;94.80
2621;DHT22;1320;48.128;11.592;2023-04-01T10:15:25;14.70;93.80
2621;DHT22;1320;48.128;11.592;2023-04-01T10:26:24;14.00;94.00
2621;DHT22;1320;48.128;11.592;2023-04-01T10:41:15;13.60;94.80
2621;DHT22;1320;48.128;11.592;2023-04-01T10:52:57;13.70;94.30
2621;DHT22;1320;48.128;11.592;2023-04-01T10:58:23;13.20;95.50
2621;DHT22;1320;48.128;11.592;2023-04-01T11:01:15;13.20;95.70
2621;DHT22;1320;48.128;11.592;2023-04-01T11:16:00;12.70;98.70
2621;DHT22;1320;48.128;11.592;2023-04-01T11:32:42;12.60;99.90
2621;DHT22;1320;48.128;11.592;2023-04-01T11:37:59;12.60;99.90
2621;DHT22;1320;48.128;11.592;2023-04-01T11:40:36;12.70;99.80
2621;DHT22;1320;48.128;11.592;2023-04-01T11:43:23;12.80;99.70
2621;DHT22;1320;48.128;11.592;2023-04-01T11:45:59;12.80;98.80
2621;DHT22;1320;48.128;11.592;2023-04-01T12:00:14;12.20;99.90
2621;DHT22;1320;48.128;11.592;2023-04-01T12:06:18;11.60;99.90
2621;DHT22;1320;48.128;11.592;2023-04-01T12:11:48;11.20;99.90
2621;DHT22;1320;48.128;11.592;2023-04-01T12:19:53;10.50;99.90
2621;DHT22;1320;48.128;11.592;2023-04-01T12:28:06;10.50;99.90
2621;DHT22;1320;48.128;11.592;2023-04-01T12:35:54;10.40;99.90
2621;DHT22;1320;48.128;11.592;2023-04-01T12:41:38;10.40;99.90
2621;DHT22;1320;48.128;11.592;2023-04-01T12:47:57;10.30;99.90
2621;DHT22;1320;48.128;11.592;2023-04-01T13:09:18;10.10;99.90
2621;DHT22;1320;48.128;11.592;2023-04-01T13:14:54;10.10;99.90
2621;DHT22;1320;48.128;11.592;2023-04-01T13:23:20;10.20;99.90
2621;DHT22;1320;48.128;11.592;2023-04-01T13:31:25;10.20;99.90
2621;DHT22;1320;48.128;11.592;2023-04-01T13:36:59;10.20;99.90
2621;DHT22;1320;48.128;11.592;2023-04-01T13:42:40;10.10;99.90
2621;DHT22;1320;48.128;11.592;2023-04-01T13:50:32;10.10;99.90
2621;DHT22;1320;48.128;11.592;2023-04-01T14:21:11;10.20;99.90
2621;DHT22;1320;48.128;11.592;2023-04-01T14:29:45;10.20;99.90
2621;DHT22;1320;48.128;11.592;2023-04-01T14:40:28;10.40;99.90
2621;DHT22;1320;48.128;11.592;2023-04-01T14:46:05;10.50;99.90
2621;DHT22;1320;48.128;11.592;2023-04-01T14:48:50;10.60;99.90
2621;DHT22;1320;48.128;11.592;2023-04-01T14:54:04;10.50;99.90
2621;DHT22;1320;48.128;11.592;2023-04-01T14:59:13;10.50;99.90
2621;DHT22;1320;48.128;11.592;2023-04-01T15:21:13;10.50;99.90
2621;DHT22;1320;48.128;11.592;2023-04-01T15:27:10;10.50;99.90
2621;DHT22;1320;48.128;11.592;2023-04-01T15:29:51;10.50;99.90
2621;DHT22;1320;48.128;11.592;2023-04-01T15:37:58;10.70;99.90
2621;DHT22;1320;48.128;11.592;2023-04-01T15:59:16;11.10;99.90
2621;DHT22;1320;48.128;11.592;2023-04-01T16:15:35;11.40;99.90
2621;DHT22;1320;48.128;11.592;2023-04-01T16:21:41;11.40;99.90
2621;DHT22;1320;48.128;11.592;2023-04-01T16:35:50;11.30;99.90
2621;DHT22;1320;48.128;11.592;2023-04-01T16:38:20;11.30;99.90
2621;DHT22;1320;48.128;11.592;2023-04-01T16:40:57;11.30;99.90
2621;DHT22;1320;48.128;11.592;2023-04-01T16:43:30;11.40;99.90
2621;DHT22;1320;48.128;11.592;2023-04-01T16:49:04;11.50;99.90
2621;DHT22;1320;48.128;11.592;2023-04-01T16:59:58;11.40;99.90
2621;DHT22;1320;48.128;11.592;2023-04-01T17:03:02;11.30;99.90
2621;DHT22;1320;48.128;11.592;2023-04-01T17:11:12;11.00;99.90
2621;DHT22;1320;48.128;11.592;2023-04-01T17:14:13;11.00;99.90
2621;DHT22;1320;48.128;11.592;2023-04-01T17:19:22;11.00;99.90
2621;DHT22;1320;48.128;11.592;2023-04-01T17:22:16;11.00;99.90
2621;DHT22;1320;48.128;11.592;2023-04-01T17:33:11;11.00;99.90
2621;DHT22;1320;48.128;11.592;2023-04-01T17:36:01;11.00;99.90
2621;DHT22;1320;48.128;11.592;2023-04-01T17:42:11;11.00;99.90
2621;DHT22;1320;48.128;11.592;2023-04-01T18:22:15;11.10;99.90
2621;DHT22;1320;48.128;11.592;2023-04-01T18:25:01;11.10;99.90
2621;DHT22;1320;48.128;11.592;2023-04-01T18:27:36;11.10;99.90
2621;DHT22;1320;48.128;11.592;2023-04-01T18:30:15;11.10;99.90
2621;DHT22;1320;48.128;11.592;2023-04-01T18:32:50;11.10;99.90
2621;DHT22;1320;48.128;11.592;2023-04-01T18:37:56;10.90;99.90
2621;DHT22;1320;48.128;11.592;2023-04-01T18:43:33;10.70;99.90
2621;DHT22;1320;48.128;11.592;2023-04-01T18:46:38;10.60;99.90
2621;DHT22;1320;48.128;11.592;2023-04-01T18:49:25;10.50;99.90
2621;DHT22;1320;48.128;11.592;2023-04-01T18:51:58;10.50;99.90
2621;DHT22;1320;48.128;11.592;2023-04-01T18:54:33;10.50;99.90
2621;DHT22;1320;48.128;11.592;2023-04-01T18:57:17;10.40;99.90
2621;DHT22;1320;48.128;11.592;2023-04-01T19:02:34;10.50;99.90
2621;DHT22;1320;48.128;11.592;2023-04-01T19:05:18;10.50;99.90
2621;DHT22;1320;48.128;11.592;2023-04-01T19:07:50;10.60;99.90
2621;DHT22;1320;48.128;11.592;2023-04-01T19:15:59;10.70;99.90
2621;DHT22;1320;48.128;11.592;2023-04-01T19:26:53;10.60;99.90
2621;DHT22;1320;48.128;11.592;2023-04-01T19:32:39;10.60;99.90
2621;DHT22;1320;48.128;11.592;2023-04-01T19:35:19;10.60;99.90
2621;DHT22;1320;48.128;11.592;2023-04-01T19:46:33;10.50;99.90
2621;DHT22;1320;48.128;11.592;2023-04-01T20:00:00;10.30;99.90
2621;DHT22;1320;48.128;11.592;2023-04-01T20:02:42;10.30;99.90
2621;DHT22;1320;48.128;11.592;2023-04-01T20:05:51;10.20;99.90
2621;DHT22;1320;48.128;11.592;2023-04-01T20:08:25;10.20;99.90
2621;DHT22;1320;48.128;11.592;2023-04-01T20:14:07;10.10;99.90
2621;DHT22;1320;48.128;11.592;2023-04-01T20:19:33;10.10;99.90
2621;DHT22;1320;48.128;11.592;2023-04-01T20:22:01;10.10;99.90
2621;DHT22;1320;48.128;11.592;2023-04-01T20:24:37;10.00;99.90
2621;DHT22;1320;48.128;11.592;2023-04-01T20:30:07;10.00;99.90
2621;DHT22;1320;48.128;11.592;2023-04-01T20:37:52;10.00;99.90
2621;DHT22;1320;48.128;11.592;2023-04-01T20:41:05;10.00;99.90
2621;DHT22;1320;48.128;11.592;2023-04-01T20:44:11;10.00;99.90
2621;DHT22;1320;48.128;11.592;2023-04-01T20:57:35;9.90;99.90
2621;DHT22;1320;48.128;11.592;2023-04-01T21:00:19;10.00;99.90
2621;DHT22;1320;48.128;11.592;2023-04-01T21:05:35;10.00;99.90
2621;DHT22;1320;48.128;11.592;2023-04-01T21:28:19;10.00;99.90
2621;DHT22;1320;48.128;11.592;2023-04-01T21:34:25;9.90;99.90
2621;DHT22;1320;48.128;11.592;2023-04-01T21:48:15;9.90;99.90
2621;DHT22;1320;48.128;11.592;2023-04-01T22:01:55;10.00;99.90
2621;DHT22;1320;48.128;11.592;2023-04-01T22:04:53;10.00;99.90
2621;DHT22;1320;48.128;11.592;2023-04-01T22:07:29;10.00;99.90
2621;DHT22;1320;48.128;11.592;2023-04-01T22:12:52;10.00;99.90
2621;DHT22;1320;48.128;11.592;2023-04-01T22:17:59;10.00;99.90
2621;DHT22;1320;48.128;11.592;2023-04-01T22:26:05;10.00;99.90
2621;DHT22;1320;48.128;11.592;2023-04-01T22:29:01;10.00;99.90
2621;DHT22;1320;48.128;11.592;2023-04-01T22:31:43;10.00;99.90
2621;DHT22;1320;48.128;11.592;2023-04-01T22:34:19;10.00;99.90
2621;DHT22;1320;48.128;11.592;2023-04-01T22:41:58;10.00;99.90
2621;DHT22;1320;48.128;11.592;2023-04-01T22:50:40;10.10;99.90
2621;DHT22;1320;48.128;11.592;2023-04-01T22:55:46;10.10;99.90
2621;DHT22;1320;48.128;11.592;2023-04-01T22:58:21;10.10;99.90
2621;DHT22;1320;48.128;11.592;2023-04-01T23:00:56;10.20;99.90
2621;DHT22;1320;48.128;11.592;2023-04-01T23:03:30;10.20;99.90
2621;DHT22;1320;48.128;11.592;2023-04-01T23:06:01;10.20;99.90
2621;DHT22;1320;48.128;11.592;2023-04-01T23:08:42;10.10;99.90
2621;DHT22;1320;48.128;11.592;2023-04-01T23:14:02;10.00;99.90
2621;DHT22;1320;48.128;11.592;2023-04-01T23:16:38;10.00;99.90
2621;DHT22;1320;48.128;11.592;2023-04-01T23:19:11;9.90;99.90
2621;DHT22;1320;48.128;11.592;2023-04-01T23:21:51;9.90;99.90
2621;DHT22;1320;48.128;11.592;2023-04-01T23:35:52;10.00;99.90
2621;DHT22;1320;48.128;11.592;2023-04-01T23:38:23;10.00;99.90
2621;DHT22;1320;48.128;11.592;2023-04-01T23:40:51;10.00;99.90
2621;DHT22;1320;48.128;11.592;2023-04-01T23:43:40;10.00;99.90
2621;DHT22;1320;48.128;11.592;2023-04-01T23:46:07;10.00;99.90
2621;DHT22;1320;48.128;11.592;2023-04-01T23:48:37;10.00;99.90
2621;DHT22;1320;48.128;11.592;2023-04-01T23:51:27;10.10;99.90
2621;DHT22;1320;48.128;11.592;2023-04-01T23:54:10;10.10;99.90
2621;DHT22;1320;48.128;11.592;2023-04-01T23:56:44;10.10;99.90
2621;DHT22;1320;48.128;11.592;2023-04-01T23:59:38;10.00;99.90
